createdAt,value
2023-06-30T00:00:12.893Z,71.69
2023-06-30T00:02:43.179Z,71.56
2023-06-30T00:05:10.830Z,71.65
2023-06-30T00:07:38.005Z,71.91
2023-06-30T00:10:05.758Z,71.94
2023-06-30T00:12:32.434Z,72.00
2023-06-30T00:14:59.278Z,72.29
2023-06-30T00:17:25.952Z,71.77
2023-06-30T00:19:52.743Z,72.16
2023-06-30T00:22:22.743Z,72.31
2023-06-30T00:24:56.379Z,72.26
2023-06-30T00:27:23.856Z,72.67
2023-06-30T00:29:50.519Z,72.62
2023-06-30T00:32:17.217Z,72.67
2023-06-30T00:34:44.017Z,72.69
2023-06-30T00:37:10.677Z,72.66
2023-06-30T00:39:37.319Z,72.54
2023-06-30T00:42:04.237Z,72.73
2023-06-30T00:44:30.876Z,72.78
2023-06-30T00:47:01.028Z,72.88
2023-06-30T00:49:28.832Z,72.51
2023-06-30T00:51:55.536Z,72.69
2023-06-30T00:54:22.320Z,72.66
2023-06-30T00:56:48.978Z,72.67
2023-06-30T00:59:15.861Z,72.24
2023-06-30T01:01:57.659Z,72.61
2023-06-30T01:04:37.423Z,72.36
2023-06-30T01:07:37.503Z,72.55
2023-06-30T01:10:24.911Z,72.49
2023-06-30T01:12:51.690Z,72.41
2023-06-30T01:15:18.462Z,72.52
2023-06-30T01:17:47.641Z,72.79
2023-06-30T01:20:15.631Z,73.04
2023-06-30T01:22:50.046Z,73.27
2023-06-30T01:25:21.376Z,73.72
2023-06-30T01:27:48.116Z,73.54
2023-06-30T01:30:15.300Z,73.57
2023-06-30T01:32:42.522Z,73.58
2023-06-30T01:35:09.359Z,73.58
2023-06-30T01:37:36.024Z,73.49
2023-06-30T01:40:05.466Z,73.17
2023-06-30T01:42:32.111Z,73.60
2023-06-30T01:44:58.992Z,73.31
2023-06-30T01:47:25.829Z,73.59
2023-06-30T01:49:52.733Z,73.29
2023-06-30T01:52:19.380Z,72.99
2023-06-30T01:54:46.191Z,73.51
2023-06-30T01:57:16.009Z,73.54
2023-06-30T01:59:42.700Z,73.24
2023-06-30T02:02:09.367Z,73.48
2023-06-30T02:04:36.113Z,73.41
2023-06-30T02:07:02.792Z,73.56
2023-06-30T02:09:42.529Z,73.56
2023-06-30T02:12:14.417Z,73.54
2023-06-30T02:14:41.248Z,73.64
2023-06-30T02:17:09.843Z,73.61
2023-06-30T02:19:36.469Z,73.55
2023-06-30T02:22:03.592Z,73.69
2023-06-30T02:24:30.252Z,73.72
2023-06-30T02:26:56.910Z,73.68
2023-06-30T02:29:24.080Z,73.38
2023-06-30T02:31:50.875Z,73.65
2023-06-30T02:34:17.557Z,73.52
2023-06-30T02:36:44.358Z,73.59
2023-06-30T02:39:11.008Z,73.36
2023-06-30T02:41:37.693Z,73.51
2023-06-30T02:44:04.474Z,73.54
2023-06-30T02:46:31.454Z,73.64
2023-06-30T02:48:58.203Z,73.67
2023-06-30T02:51:24.848Z,73.64
2023-06-30T02:53:51.592Z,73.55
2023-06-30T02:56:18.730Z,73.57
2023-06-30T02:58:45.586Z,73.70
2023-06-30T03:01:12.321Z,73.30
2023-06-30T03:03:39.943Z,73.40
2023-06-30T03:06:06.846Z,73.40
2023-06-30T03:08:33.540Z,73.13
2023-06-30T03:11:00.943Z,73.68
2023-06-30T03:13:27.800Z,73.37
2023-06-30T03:15:54.438Z,73.32
2023-06-30T03:18:21.281Z,73.16
2023-06-30T03:20:48.695Z,73.35
2023-06-30T03:23:15.521Z,72.92
2023-06-30T03:25:42.556Z,73.32
2023-06-30T03:28:09.312Z,73.00
2023-06-30T03:30:36.001Z,72.93
2023-06-30T03:33:02.886Z,73.10
2023-06-30T03:35:30.388Z,73.02
2023-06-30T03:37:57.093Z,72.97
2023-06-30T03:40:23.948Z,72.93
2023-06-30T03:42:50.845Z,73.17
2023-06-30T03:45:17.690Z,73.01
2023-06-30T03:47:44.376Z,72.78
2023-06-30T03:50:11.285Z,72.90
2023-06-30T03:52:38.956Z,72.72
2023-06-30T03:55:05.951Z,72.44
2023-06-30T03:57:32.578Z,72.51
2023-06-30T03:59:59.316Z,72.49
2023-06-30T04:02:26.082Z,72.47
2023-06-30T04:04:52.797Z,72.54
2023-06-30T04:07:19.640Z,72.53
2023-06-30T04:09:46.505Z,72.33
2023-06-30T04:12:13.203Z,71.98
2023-06-30T04:14:40.142Z,72.03
2023-06-30T04:17:06.894Z,72.14
2023-06-30T04:19:33.610Z,72.22
2023-06-30T04:22:01.921Z,71.71
2023-06-30T04:24:30.755Z,71.63
2023-06-30T04:26:57.524Z,71.17
2023-06-30T04:29:24.836Z,71.51
2023-06-30T04:31:51.561Z,70.78
2023-06-30T04:34:18.257Z,70.82
2023-06-30T04:36:44.944Z,70.64
2023-06-30T04:39:11.656Z,70.61
2023-06-30T04:41:38.783Z,69.99
2023-06-30T04:44:05.573Z,69.76
2023-06-30T04:46:32.562Z,68.62
2023-06-30T04:49:02.080Z,68.03
2023-06-30T04:51:29.364Z,66.76
2023-06-30T04:53:56.008Z,64.33
2023-06-30T04:56:22.949Z,61.64
2023-06-30T04:58:50.601Z,58.18
2023-06-30T05:01:17.557Z,54.25
2023-06-30T05:03:44.491Z,50.48
2023-06-30T05:06:11.158Z,45.29
2023-06-30T05:08:37.890Z,44.00
2023-06-30T05:11:07.066Z,42.03
2023-06-30T05:13:36.262Z,38.68
2023-06-30T05:16:02.997Z,37.92
2023-06-30T05:18:29.748Z,35.35
2023-06-30T05:20:56.570Z,35.19
2023-06-30T05:23:24.816Z,33.42
2023-06-30T05:25:51.631Z,31.83
2023-06-30T05:28:18.286Z,29.85
2023-06-30T05:30:45.023Z,29.99
2023-06-30T05:33:11.659Z,29.65
2023-06-30T05:35:38.388Z,28.36
2023-06-30T05:38:05.147Z,27.61
2023-06-30T05:40:31.859Z,26.74
2023-06-30T05:42:58.527Z,26.07
2023-06-30T05:45:26.532Z,25.15
2023-06-30T05:47:53.268Z,24.28
2023-06-30T05:50:23.288Z,23.56
2023-06-30T05:52:50.536Z,23.61
2023-06-30T05:55:17.428Z,23.44
2023-06-30T05:57:44.074Z,22.20
2023-06-30T06:00:11.652Z,22.33
2023-06-30T06:02:38.489Z,21.66
2023-06-30T06:05:06.042Z,21.54
2023-06-30T06:07:33.313Z,20.88
2023-06-30T06:10:00.057Z,20.21
2023-06-30T06:12:26.747Z,19.65
2023-06-30T06:14:53.414Z,19.33
2023-06-30T06:17:20.075Z,19.08
2023-06-30T06:19:46.787Z,19.06
2023-06-30T06:22:13.459Z,18.37
2023-06-30T06:24:40.105Z,17.83
2023-06-30T06:27:06.967Z,17.92
2023-06-30T06:29:34.068Z,16.15
2023-06-30T06:32:00.806Z,16.90
2023-06-30T06:34:27.505Z,16.71
2023-06-30T06:36:54.186Z,16.00
2023-06-30T06:39:22.154Z,16.24
2023-06-30T06:41:49.026Z,15.69
2023-06-30T06:44:15.735Z,16.14
2023-06-30T06:46:44.490Z,15.89
2023-06-30T06:49:11.560Z,14.82
2023-06-30T06:51:38.343Z,15.43
2023-06-30T06:54:05.000Z,15.29
2023-06-30T06:56:31.800Z,14.36
2023-06-30T06:58:58.526Z,14.72
2023-06-30T07:01:25.325Z,14.18
2023-06-30T07:03:52.184Z,14.68
2023-06-30T07:06:19.794Z,15.46
2023-06-30T07:08:46.616Z,17.44
2023-06-30T07:11:14.168Z,17.86
2023-06-30T07:13:41.088Z,19.13
2023-06-30T07:16:08.016Z,19.38
2023-06-30T07:18:35.517Z,21.37
2023-06-30T07:21:03.131Z,21.63
2023-06-30T07:23:29.914Z,23.53
2023-06-30T07:25:56.690Z,24.47
2023-06-30T07:28:23.365Z,24.24
2023-06-30T07:30:50.210Z,24.51
2023-06-30T07:33:18.496Z,25.51
2023-06-30T07:35:45.440Z,26.36
2023-06-30T07:38:12.583Z,27.15
2023-06-30T07:40:53.814Z,27.95
2023-06-30T07:43:22.285Z,28.59
2023-06-30T07:45:49.451Z,28.75
2023-06-30T07:48:16.529Z,30.14
2023-06-30T07:50:54.666Z,30.08
2023-06-30T07:53:30.195Z,31.55
2023-06-30T07:55:57.072Z,31.61
2023-06-30T07:58:23.868Z,31.82
2023-06-30T08:00:50.701Z,32.66
2023-06-30T08:03:17.972Z,33.10
2023-06-30T08:05:45.159Z,32.88
2023-06-30T08:08:12.387Z,34.05
2023-06-30T08:10:40.336Z,32.83
2023-06-30T08:13:08.162Z,32.35
2023-06-30T08:15:34.933Z,33.50
2023-06-30T08:18:08.581Z,34.60
2023-06-30T08:20:37.844Z,34.56
2023-06-30T08:23:04.676Z,33.12
2023-06-30T08:25:31.352Z,34.55
2023-06-30T08:27:58.429Z,34.22
2023-06-30T08:30:25.632Z,34.40
2023-06-30T08:32:52.936Z,33.80
2023-06-30T08:35:19.915Z,34.00
2023-06-30T08:37:49.322Z,33.63
2023-06-30T08:40:28.342Z,33.27
2023-06-30T08:42:55.125Z,34.45
2023-06-30T08:45:24.650Z,35.14
2023-06-30T08:47:51.438Z,34.22
2023-06-30T08:50:18.316Z,34.18
2023-06-30T08:52:45.024Z,33.76
2023-06-30T08:55:12.058Z,33.51
2023-06-30T08:57:38.970Z,34.76
2023-06-30T09:00:06.386Z,34.54
2023-06-30T09:02:33.389Z,34.55
2023-06-30T09:05:00.398Z,34.67
2023-06-30T09:07:30.206Z,35.62
2023-06-30T09:10:07.684Z,32.52
2023-06-30T09:12:34.388Z,33.06
2023-06-30T09:15:01.494Z,33.44
2023-06-30T09:17:28.515Z,33.14
2023-06-30T09:19:55.290Z,34.07
2023-06-30T09:22:54.652Z,33.23
2023-06-30T09:25:26.218Z,34.34
2023-06-30T09:27:53.451Z,31.69
2023-06-30T09:30:20.375Z,32.65
2023-06-30T09:32:47.133Z,32.11
2023-06-30T09:35:18.265Z,31.85
2023-06-30T09:37:45.310Z,32.07
2023-06-30T09:40:14.244Z,33.75
2023-06-30T09:42:46.824Z,32.88
2023-06-30T09:45:14.425Z,33.28
2023-06-30T09:47:41.329Z,32.75
2023-06-30T09:50:10.190Z,32.97
2023-06-30T09:52:38.691Z,33.95
2023-06-30T09:55:12.208Z,30.79
2023-06-30T09:57:41.246Z,32.21
2023-06-30T10:00:11.642Z,31.91
2023-06-30T10:02:45.495Z,31.66
2023-06-30T10:05:12.525Z,32.33
2023-06-30T10:07:41.450Z,32.13
2023-06-30T10:10:11.271Z,32.90
2023-06-30T10:12:38.369Z,31.85
2023-06-30T10:15:06.056Z,31.71
2023-06-30T10:17:33.125Z,31.60
2023-06-30T10:20:02.052Z,32.08
2023-06-30T10:22:32.134Z,31.11
2023-06-30T10:24:58.874Z,32.83
2023-06-30T10:27:25.596Z,33.37
2023-06-30T10:29:52.236Z,32.50
2023-06-30T10:32:21.754Z,32.06
2023-06-30T10:34:49.138Z,32.91
2023-06-30T10:37:54.949Z,32.43
2023-06-30T10:40:26.111Z,32.91
2023-06-30T10:42:57.541Z,33.46
2023-06-30T10:45:37.628Z,33.98
2023-06-30T10:48:11.155Z,32.76
2023-06-30T10:50:42.860Z,32.90
2023-06-30T10:53:09.600Z,32.57
2023-06-30T10:55:36.999Z,33.14
2023-06-30T10:58:06.030Z,32.17
2023-06-30T11:00:32.849Z,32.51
2023-06-30T11:03:00.521Z,33.39
2023-06-30T11:05:30.969Z,32.77
2023-06-30T11:08:11.930Z,33.64
2023-06-30T11:10:39.707Z,33.92
2023-06-30T11:13:10.260Z,32.81
2023-06-30T11:15:40.876Z,33.26
2023-06-30T11:18:13.903Z,32.44
2023-06-30T11:21:07.491Z,32.74
2023-06-30T11:23:38.814Z,31.82
2023-06-30T11:26:16.414Z,32.78
2023-06-30T11:28:44.040Z,33.05
2023-06-30T11:31:13.108Z,33.66
2023-06-30T11:33:40.854Z,34.76
2023-06-30T11:36:15.978Z,34.70
2023-06-30T11:38:49.267Z,34.92
2023-06-30T11:41:22.887Z,32.21
2023-06-30T11:43:51.110Z,32.77
2023-06-30T11:46:17.937Z,32.91
2023-06-30T11:48:44.753Z,32.24
2023-06-30T11:51:13.046Z,31.94
2023-06-30T11:53:43.904Z,32.46
2023-06-30T11:56:10.570Z,31.61
2023-06-30T11:58:38.132Z,33.24
2023-06-30T12:01:05.325Z,32.61
2023-06-30T12:03:32.099Z,34.04
2023-06-30T12:05:59.146Z,32.25
2023-06-30T12:08:31.853Z,33.50
2023-06-30T12:10:58.621Z,33.18
2023-06-30T12:13:29.217Z,32.62
2023-06-30T12:15:59.505Z,32.72
2023-06-30T12:18:36.493Z,33.38
2023-06-30T12:21:04.403Z,33.07
2023-06-30T12:23:31.072Z,33.97
2023-06-30T12:25:57.958Z,34.22
2023-06-30T12:28:24.735Z,32.50
2023-06-30T12:30:51.418Z,32.73
2023-06-30T12:33:21.157Z,32.60
2023-06-30T12:35:50.515Z,31.77
2023-06-30T12:38:17.241Z,32.32
2023-06-30T12:40:44.373Z,33.32
2023-06-30T12:43:11.307Z,32.60
2023-06-30T12:45:37.981Z,30.44
2023-06-30T12:48:04.901Z,33.31
2023-06-30T12:50:31.655Z,32.05
2023-06-30T12:52:58.747Z,32.69
2023-06-30T12:55:25.420Z,32.82
2023-06-30T12:57:52.374Z,31.03
2023-06-30T13:00:19.277Z,31.51
2023-06-30T13:02:45.987Z,31.07
2023-06-30T13:05:12.832Z,31.58
2023-06-30T13:07:39.711Z,32.07
2023-06-30T13:10:07.792Z,32.17
2023-06-30T13:12:37.425Z,31.81
2023-06-30T13:15:05.083Z,31.86
2023-06-30T13:17:31.849Z,32.98
2023-06-30T13:19:59.067Z,31.56
2023-06-30T13:22:25.849Z,32.66
2023-06-30T13:24:53.220Z,33.28
2023-06-30T13:27:20.012Z,33.15
2023-06-30T13:29:50.692Z,33.70
2023-06-30T13:32:17.773Z,33.60
2023-06-30T13:34:47.943Z,34.52
2023-06-30T13:37:14.842Z,34.00
2023-06-30T13:39:41.554Z,34.27
2023-06-30T13:42:09.048Z,34.75
2023-06-30T13:44:36.074Z,33.21
2023-06-30T13:47:02.775Z,33.97
2023-06-30T13:49:29.475Z,32.19
2023-06-30T13:51:56.135Z,32.48
2023-06-30T13:54:23.207Z,32.45
2023-06-30T13:56:50.622Z,33.83
2023-06-30T13:59:17.452Z,32.94
2023-06-30T14:01:44.255Z,32.39
2023-06-30T14:04:10.982Z,32.32
2023-06-30T14:06:37.672Z,32.83
2023-06-30T14:09:04.621Z,33.48
2023-06-30T14:11:31.328Z,32.26
2023-06-30T14:13:58.563Z,33.10
2023-06-30T14:16:25.291Z,33.73
2023-06-30T14:18:52.088Z,34.75
2023-06-30T14:21:19.648Z,35.33
2023-06-30T14:23:46.429Z,34.50
2023-06-30T14:26:13.234Z,33.85
2023-06-30T14:28:40.010Z,34.01
2023-06-30T14:31:06.770Z,34.05
2023-06-30T14:33:33.605Z,34.26
2023-06-30T14:36:00.289Z,35.16
2023-06-30T14:38:26.961Z,33.83
2023-06-30T14:40:53.745Z,34.40
2023-06-30T14:43:24.691Z,35.70
2023-06-30T14:45:51.443Z,36.83
2023-06-30T14:48:18.208Z,35.65
2023-06-30T14:50:45.794Z,35.38
2023-06-30T14:53:12.836Z,35.72
2023-06-30T14:55:40.224Z,35.54
2023-06-30T14:58:06.989Z,36.67
2023-06-30T15:00:34.230Z,36.81
2023-06-30T15:03:01.639Z,36.36
2023-06-30T15:05:30.292Z,37.05
2023-06-30T15:07:57.031Z,36.45
2023-06-30T15:10:23.839Z,36.28
2023-06-30T15:12:50.698Z,36.24
2023-06-30T15:15:17.375Z,36.52
2023-06-30T15:17:44.137Z,36.77
2023-06-30T15:20:11.191Z,37.63
2023-06-30T15:22:37.930Z,37.13
2023-06-30T15:25:04.955Z,37.98
2023-06-30T15:27:33.347Z,37.93
2023-06-30T15:30:00.092Z,37.44
2023-06-30T15:32:27.072Z,37.47
2023-06-30T15:34:53.992Z,36.67
2023-06-30T15:37:20.625Z,36.96
2023-06-30T15:39:48.632Z,37.55
2023-06-30T15:42:15.334Z,38.27
2023-06-30T15:44:43.750Z,37.56
2023-06-30T15:47:10.680Z,37.49
2023-06-30T15:49:37.510Z,37.65
2023-06-30T15:52:04.998Z,37.08
2023-06-30T15:54:31.773Z,38.01
2023-06-30T15:56:59.573Z,37.51
2023-06-30T15:59:26.665Z,37.93
2023-06-30T16:01:53.805Z,36.96
2023-06-30T16:04:20.885Z,38.00
2023-06-30T16:06:47.636Z,38.22
2023-06-30T16:09:15.842Z,37.68
2023-06-30T16:11:42.565Z,38.27
2023-06-30T16:14:09.438Z,38.05
2023-06-30T16:16:36.643Z,38.27
2023-06-30T16:19:03.528Z,38.12
2023-06-30T16:21:30.499Z,38.10
2023-06-30T16:23:57.711Z,38.60
2023-06-30T16:26:24.690Z,38.53
2023-06-30T16:28:51.405Z,38.65
2023-06-30T16:31:18.312Z,38.49
2023-06-30T16:33:45.021Z,38.30
2023-06-30T16:36:11.752Z,37.91
2023-06-30T16:38:40.771Z,38.35
2023-06-30T16:41:07.813Z,38.94
2023-06-30T16:43:34.698Z,39.84
2023-06-30T16:46:01.394Z,38.64
2023-06-30T16:48:28.096Z,39.73
2023-06-30T16:50:54.774Z,38.12
2023-06-30T16:53:23.019Z,39.17
2023-06-30T16:55:51.600Z,38.46
2023-06-30T16:58:19.159Z,38.45
2023-06-30T17:00:45.998Z,37.57
2023-06-30T17:03:13.157Z,37.52
2023-06-30T17:05:40.161Z,37.24
2023-06-30T17:08:07.237Z,39.18
2023-06-30T17:10:33.981Z,38.57
2023-06-30T17:13:00.891Z,38.20
2023-06-30T17:15:27.642Z,39.06
2023-06-30T17:18:08.790Z,38.88
2023-06-30T17:20:38.526Z,38.88
2023-06-30T17:23:07.200Z,38.11
2023-06-30T17:25:33.930Z,38.84
2023-06-30T17:28:00.630Z,39.14
2023-06-30T17:30:27.288Z,39.00
2023-06-30T17:32:54.176Z,38.28
2023-06-30T17:35:20.930Z,38.65
2023-06-30T17:37:47.591Z,38.33
2023-06-30T17:40:14.466Z,39.01
2023-06-30T17:42:41.482Z,39.18
2023-06-30T17:45:08.521Z,39.66
2023-06-30T17:47:35.201Z,40.19
2023-06-30T17:50:01.988Z,39.82
2023-06-30T17:52:28.759Z,40.43
2023-06-30T17:54:55.426Z,40.93
2023-06-30T17:57:22.138Z,40.96
2023-06-30T17:59:48.832Z,40.98
2023-06-30T18:02:15.534Z,41.75
2023-06-30T18:04:42.345Z,42.36
2023-06-30T18:07:10.891Z,41.58
2023-06-30T18:09:39.243Z,42.54
2023-06-30T18:12:06.276Z,43.43
2023-06-30T18:14:33.410Z,45.38
2023-06-30T18:17:00.408Z,45.11
2023-06-30T18:19:27.111Z,45.83
2023-06-30T18:21:54.121Z,46.36
2023-06-30T18:24:20.948Z,46.50
2023-06-30T18:26:48.515Z,46.92
2023-06-30T18:29:22.441Z,46.52
2023-06-30T18:31:49.900Z,47.01
2023-06-30T18:34:16.806Z,47.05
2023-06-30T18:36:43.559Z,47.66
2023-06-30T18:39:10.452Z,47.57
2023-06-30T18:41:37.329Z,48.07
2023-06-30T18:44:04.633Z,47.91
2023-06-30T18:46:32.243Z,48.23
2023-06-30T18:48:59.371Z,48.17
2023-06-30T18:51:26.920Z,47.78
2023-06-30T18:53:54.180Z,48.52
2023-06-30T18:56:24.455Z,48.58
2023-06-30T18:58:55.498Z,48.94
2023-06-30T19:01:22.348Z,48.96
2023-06-30T19:03:51.304Z,49.55
2023-06-30T19:06:22.801Z,49.50
2023-06-30T19:08:51.245Z,49.68
2023-06-30T19:11:17.955Z,49.56
2023-06-30T19:13:44.886Z,49.58
2023-06-30T19:16:11.758Z,50.58
2023-06-30T19:18:40.102Z,50.59
2023-06-30T19:21:07.534Z,50.73
2023-06-30T19:23:37.147Z,50.13
2023-06-30T19:26:03.921Z,50.37
2023-06-30T19:28:30.753Z,50.64
2023-06-30T19:30:57.609Z,50.97
2023-06-30T19:33:29.652Z,50.98
2023-06-30T19:35:56.992Z,50.90
2023-06-30T19:38:26.495Z,51.56
2023-06-30T19:40:54.314Z,53.03
2023-06-30T19:43:21.069Z,52.11
2023-06-30T19:45:48.174Z,52.39
2023-06-30T19:48:16.831Z,52.20
2023-06-30T19:50:44.048Z,52.33
2023-06-30T19:53:11.013Z,52.33
2023-06-30T19:55:37.945Z,52.65
2023-06-30T19:58:05.197Z,53.14
2023-06-30T20:00:33.249Z,53.53
2023-06-30T20:03:00.003Z,53.47
2023-06-30T20:05:26.826Z,53.36
2023-06-30T20:07:53.686Z,53.36
2023-06-30T20:10:20.418Z,54.08
2023-06-30T20:12:47.245Z,54.01
2023-06-30T20:15:14.060Z,54.91
2023-06-30T20:17:40.775Z,54.30
2023-06-30T20:20:09.500Z,54.70
2023-06-30T20:22:36.269Z,55.34
2023-06-30T20:25:03.078Z,55.39
2023-06-30T20:27:30.099Z,55.04
2023-06-30T20:29:56.862Z,54.92
2023-06-30T20:32:23.590Z,54.91
2023-06-30T20:34:50.378Z,55.16
2023-06-30T20:37:17.040Z,55.55
2023-06-30T20:39:43.713Z,55.61
2023-06-30T20:42:10.591Z,54.49
2023-06-30T20:44:37.365Z,53.80
2023-06-30T20:47:04.746Z,52.64
2023-06-30T20:49:31.587Z,52.56
2023-06-30T20:51:58.324Z,52.90
2023-06-30T20:54:25.099Z,53.17
2023-06-30T20:56:53.199Z,53.40
2023-06-30T20:59:21.086Z,53.70
2023-06-30T21:01:48.380Z,54.55
2023-06-30T21:04:15.218Z,54.56
2023-06-30T21:06:42.033Z,54.96
2023-06-30T21:09:08.718Z,55.62
2023-06-30T21:11:35.436Z,55.31
2023-06-30T21:14:02.164Z,55.44
2023-06-30T21:16:28.932Z,55.21
2023-06-30T21:18:55.721Z,55.48
2023-06-30T21:21:22.502Z,55.37
2023-06-30T21:23:49.358Z,55.61
2023-06-30T21:26:16.147Z,55.54
2023-06-30T21:28:42.884Z,55.79
2023-06-30T21:31:09.577Z,55.98
2023-06-30T21:33:36.289Z,56.25
2023-06-30T21:36:03.120Z,56.17
2023-06-30T21:38:29.861Z,56.48
2023-06-30T21:40:56.572Z,56.50
2023-06-30T21:43:23.262Z,57.02
2023-06-30T21:45:50.231Z,56.54
2023-06-30T21:48:18.239Z,56.56
2023-06-30T21:50:45.218Z,56.63
2023-06-30T21:53:12.146Z,57.23
2023-06-30T21:55:38.992Z,56.90
2023-06-30T21:58:14.691Z,56.57
2023-06-30T22:00:50.288Z,56.87
2023-06-30T22:03:17.323Z,57.07
2023-06-30T22:05:44.045Z,57.13
2023-06-30T22:08:11.802Z,57.05
2023-06-30T22:10:38.504Z,57.11
2023-06-30T22:13:05.361Z,57.62
2023-06-30T22:15:32.164Z,58.26
2023-06-30T22:17:59.008Z,58.19
2023-06-30T22:20:28.607Z,58.71
2023-06-30T22:22:55.568Z,59.87
2023-06-30T22:25:22.350Z,59.08
2023-06-30T22:27:49.752Z,59.10
2023-06-30T22:30:17.347Z,59.46
2023-06-30T22:32:44.172Z,59.31
2023-06-30T22:35:11.137Z,59.29
2023-06-30T22:37:38.004Z,59.97
2023-06-30T22:40:05.096Z,60.03
2023-06-30T22:42:31.792Z,59.74
2023-06-30T22:44:58.578Z,59.65
2023-06-30T22:47:25.473Z,60.00
2023-06-30T22:49:52.280Z,59.96
2023-06-30T22:52:18.993Z,60.26
2023-06-30T22:54:45.700Z,60.45
2023-06-30T22:57:12.431Z,60.93
2023-06-30T22:59:39.180Z,61.05
2023-06-30T23:02:06.237Z,61.25
2023-06-30T23:04:32.946Z,61.18
2023-06-30T23:06:59.730Z,61.08
2023-06-30T23:09:26.472Z,61.22
2023-06-30T23:11:53.207Z,61.45
2023-06-30T23:14:22.205Z,61.40
2023-06-30T23:16:49.140Z,61.95
2023-06-30T23:19:16.135Z,61.72
2023-06-30T23:21:46.120Z,62.00
2023-06-30T23:24:12.992Z,61.87
2023-06-30T23:26:40.864Z,61.68
2023-06-30T23:29:09.802Z,61.53
2023-06-30T23:31:39.639Z,61.51
2023-06-30T23:34:06.840Z,61.49
2023-06-30T23:36:34.111Z,61.69
2023-06-30T23:39:00.878Z,62.40
2023-06-30T23:41:27.963Z,62.38
2023-06-30T23:43:54.723Z,62.13
2023-06-30T23:46:22.180Z,62.38
2023-06-30T23:48:52.561Z,62.20
2023-06-30T23:51:19.392Z,62.37
2023-06-30T23:53:46.095Z,62.37
2023-06-30T23:56:12.811Z,62.13
2023-06-30T23:58:39.512Z,61.56
